sensor_id;sensor_type;location;lat;lon;timestamp;temperature;humidity
21672;DHT22;10997;52.242;8.168;2023-12-20T00:04:23;6.10;99.90
21672;DHT22;10997;52.242;8.168;2023-12-20T00:09:24;6.10;99.90
21672;DHT22;10997;52.242;8.168;2023-12-20T00:14:24;6.00;99.90
21672;DHT22;10997;52.242;8.168;2023-12-20T00:19:26;6.00;99.90
21672;DHT22;10997;52.242;8.168;2023-12-20T00:24:27;6.00;99.90
21672;DHT22;10997;52.242;8.168;2023-12-20T00:29:28;6.00;99.90
21672;DHT22;10997;52.242;8.168;2023-12-20T00:34:28;6.00;99.90
21672;DHT22;10997;52.242;8.168;2023-12-20T00:39:29;5.90;99.90
21672;DHT22;10997;52.242;8.168;2023-12-20T00:44:29;5.90;99.90
21672;DHT22;10997;52.242;8.168;2023-12-20T00:49:30;6.10;99.90
21672;DHT22;10997;52.242;8.168;2023-12-20T00:54:31;6.10;99.90
21672;DHT22;10997;52.242;8.168;2023-12-20T00:59:31;6.10;99.90
21672;DHT22;10997;52.242;8.168;2023-12-20T01:04:32;6.10;99.90
21672;DHT22;10997;52.242;8.168;2023-12-20T01:09:32;6.10;99.90
21672;DHT22;10997;52.242;8.168;2023-12-20T01:14:33;6.00;99.90
21672;DHT22;10997;52.242;8.168;2023-12-20T01:19:34;5.90;99.90
21672;DHT22;10997;52.242;8.168;2023-12-20T01:24:34;5.80;99.90
21672;DHT22;10997;52.242;8.168;2023-12-20T01:29:36;5.80;99.90
21672;DHT22;10997;52.242;8.168;2023-12-20T01:34:36;5.80;99.90
21672;DHT22;10997;52.242;8.168;2023-12-20T01:39:37;5.80;99.90
21672;DHT22;10997;52.242;8.168;2023-12-20T01:44:38;5.80;99.90
21672;DHT22;10997;52.242;8.168;2023-12-20T01:49:38;5.80;99.90
21672;DHT22;10997;52.242;8.168;2023-12-20T01:54:40;5.70;99.90
21672;DHT22;10997;52.242;8.168;2023-12-20T01:59:42;5.70;99.90
21672;DHT22;10997;52.242;8.168;2023-12-20T02:04:42;5.60;99.90
21672;DHT22;10997;52.242;8.168;2023-12-20T02:09:43;5.50;99.90
21672;DHT22;10997;52.242;8.168;2023-12-20T02:14:44;5.50;99.90
21672;DHT22;10997;52.242;8.168;2023-12-20T02:19:45;5.40;99.90
21672;DHT22;10997;52.242;8.168;2023-12-20T02:24:45;5.40;99.90
21672;DHT22;10997;52.242;8.168;2023-12-20T02:29:47;5.40;99.90
21672;DHT22;10997;52.242;8.168;2023-12-20T02:34:48;5.50;99.90
21672;DHT22;10997;52.242;8.168;2023-12-20T02:39:49;5.50;99.90
21672;DHT22;10997;52.242;8.168;2023-12-20T02:44:49;5.60;99.90
21672;DHT22;10997;52.242;8.168;2023-12-20T02:49:50;5.60;99.90
21672;DHT22;10997;52.242;8.168;2023-12-20T02:54:51;5.50;99.90
21672;DHT22;10997;52.242;8.168;2023-12-20T02:59:52;5.60;99.90
21672;DHT22;10997;52.242;8.168;2023-12-20T03:04:52;5.60;99.90
21672;DHT22;10997;52.242;8.168;2023-12-20T03:09:53;5.60;99.90
21672;DHT22;10997;52.242;8.168;2023-12-20T03:14:54;5.60;99.90
21672;DHT22;10997;52.242;8.168;2023-12-20T03:19:54;5.60;99.90
21672;DHT22;10997;52.242;8.168;2023-12-20T03:24:55;5.60;99.90
21672;DHT22;10997;52.242;8.168;2023-12-20T03:29:55;5.70;99.90
21672;DHT22;10997;52.242;8.168;2023-12-20T03:34:56;5.70;99.90
21672;DHT22;10997;52.242;8.168;2023-12-20T03:39:57;5.70;99.90
21672;DHT22;10997;52.242;8.168;2023-12-20T03:44:57;5.60;99.90
21672;DHT22;10997;52.242;8.168;2023-12-20T03:49:58;5.60;99.90
21672;DHT22;10997;52.242;8.168;2023-12-20T03:54:58;5.60;99.90
21672;DHT22;10997;52.242;8.168;2023-12-20T03:59:59;5.60;99.90
21672;DHT22;10997;52.242;8.168;2023-12-20T04:05:00;5.60;99.90
21672;DHT22;10997;52.242;8.168;2023-12-20T04:10:00;5.60;99.90
21672;DHT22;10997;52.242;8.168;2023-12-20T04:15:01;5.70;99.90
21672;DHT22;10997;52.242;8.168;2023-12-20T04:20:02;5.70;99.90
21672;DHT22;10997;52.242;8.168;2023-12-20T04:25:03;5.70;99.90
21672;DHT22;10997;52.242;8.168;2023-12-20T04:30:04;5.70;99.90
21672;DHT22;10997;52.242;8.168;2023-12-20T04:35:05;5.70;99.90
21672;DHT22;10997;52.242;8.168;2023-12-20T04:40:06;5.70;99.90
21672;DHT22;10997;52.242;8.168;2023-12-20T04:45:08;5.70;99.90
21672;DHT22;10997;52.242;8.168;2023-12-20T04:50:09;5.70;99.90
21672;DHT22;10997;52.242;8.168;2023-12-20T04:55:10;5.70;99.90
21672;DHT22;10997;52.242;8.168;2023-12-20T05:00:11;5.70;99.90
21672;DHT22;10997;52.242;8.168;2023-12-20T05:05:12;5.70;99.90
21672;DHT22;10997;52.242;8.168;2023-12-20T05:10:15;5.70;99.90
21672;DHT22;10997;52.242;8.168;2023-12-20T05:15:15;5.70;99.90
21672;DHT22;10997;52.242;8.168;2023-12-20T05:20:16;5.70;99.90
21672;DHT22;10997;52.242;8.168;2023-12-20T05:25:17;5.70;99.90
21672;DHT22;10997;52.242;8.168;2023-12-20T05:30:17;5.70;99.90
21672;DHT22;10997;52.242;8.168;2023-12-20T05:35:18;5.70;99.90
21672;DHT22;10997;52.242;8.168;2023-12-20T05:40:19;5.70;99.90
21672;DHT22;10997;52.242;8.168;2023-12-20T05:45:20;5.70;99.90
21672;DHT22;10997;52.242;8.168;2023-12-20T05:50:21;5.80;99.90
21672;DHT22;10997;52.242;8.168;2023-12-20T05:55:21;5.90;99.90
21672;DHT22;10997;52.242;8.168;2023-12-20T06:00:22;5.90;99.90
21672;DHT22;10997;52.242;8.168;2023-12-20T06:05:23;5.90;99.90
21672;DHT22;10997;52.242;8.168;2023-12-20T06:10:23;5.90;99.90
21672;DHT22;10997;52.242;8.168;2023-12-20T06:15:24;5.90;99.90
21672;DHT22;10997;52.242;8.168;2023-12-20T06:20:26;6.00;99.90
21672;DHT22;10997;52.242;8.168;2023-12-20T06:25:26;6.00;99.90
21672;DHT22;10997;52.242;8.168;2023-12-20T06:30:27;6.00;99.90
21672;DHT22;10997;52.242;8.168;2023-12-20T06:35:28;6.00;99.90
21672;DHT22;10997;52.242;8.168;2023-12-20T06:40:28;6.00;99.90
21672;DHT22;10997;52.242;8.168;2023-12-20T06:45:29;6.00;99.90
21672;DHT22;10997;52.242;8.168;2023-12-20T06:50:30;6.00;99.90
21672;DHT22;10997;52.242;8.168;2023-12-20T06:55:30;6.10;99.90
21672;DHT22;10997;52.242;8.168;2023-12-20T07:00:32;6.10;99.90
21672;DHT22;10997;52.242;8.168;2023-12-20T07:05:33;6.00;99.90
21672;DHT22;10997;52.242;8.168;2023-12-20T07:10:34;6.10;99.90
21672;DHT22;10997;52.242;8.168;2023-12-20T07:15:34;6.10;99.90
21672;DHT22;10997;52.242;8.168;2023-12-20T07:20:37;6.10;99.90
21672;DHT22;10997;52.242;8.168;2023-12-20T07:25:37;6.10;99.90
21672;DHT22;10997;52.242;8.168;2023-12-20T07:30:38;6.10;99.90
21672;DHT22;10997;52.242;8.168;2023-12-20T07:35:39;6.10;99.90
21672;DHT22;10997;52.242;8.168;2023-12-20T07:40:40;6.20;99.90
21672;DHT22;10997;52.242;8.168;2023-12-20T07:45:40;6.10;99.90
21672;DHT22;10997;52.242;8.168;2023-12-20T07:50:41;6.20;99.90
21672;DHT22;10997;52.242;8.168;2023-12-20T07:55:42;6.20;99.90
21672;DHT22;10997;52.242;8.168;2023-12-20T08:00:43;6.20;99.90
21672;DHT22;10997;52.242;8.168;2023-12-20T08:05:44;6.20;99.90
21672;DHT22;10997;52.242;8.168;2023-12-20T08:10:45;6.20;99.90
21672;DHT22;10997;52.242;8.168;2023-12-20T08:15:45;6.20;99.90
21672;DHT22;10997;52.242;8.168;2023-12-20T08:20:46;6.20;99.90
21672;DHT22;10997;52.242;8.168;2023-12-20T08:25:49;6.20;99.90
21672;DHT22;10997;52.242;8.168;2023-12-20T08:30:49;6.20;99.90
21672;DHT22;10997;52.242;8.168;2023-12-20T08:35:53;6.30;99.90
21672;DHT22;10997;52.242;8.168;2023-12-20T08:40:54;6.30;99.90
21672;DHT22;10997;52.242;8.168;2023-12-20T08:45:55;6.30;99.90
21672;DHT22;10997;52.242;8.168;2023-12-20T08:50:55;6.40;99.90
21672;DHT22;10997;52.242;8.168;2023-12-20T08:55:56;6.40;99.90
21672;DHT22;10997;52.242;8.168;2023-12-20T09:01:01;6.40;99.90
21672;DHT22;10997;52.242;8.168;2023-12-20T09:06:02;6.50;99.90
21672;DHT22;10997;52.242;8.168;2023-12-20T09:11:03;6.50;99.90
21672;DHT22;10997;52.242;8.168;2023-12-20T09:16:04;6.50;99.90
21672;DHT22;10997;52.242;8.168;2023-12-20T09:21:04;6.60;99.90
21672;DHT22;10997;52.242;8.168;2023-12-20T09:26:05;6.60;99.90
21672;DHT22;10997;52.242;8.168;2023-12-20T09:31:06;6.60;99.90
21672;DHT22;10997;52.242;8.168;2023-12-20T09:36:07;6.60;99.90
21672;DHT22;10997;52.242;8.168;2023-12-20T09:41:08;6.60;99.90
21672;DHT22;10997;52.242;8.168;2023-12-20T09:46:11;6.70;99.90
21672;DHT22;10997;52.242;8.168;2023-12-20T09:51:13;6.60;99.90
21672;DHT22;10997;52.242;8.168;2023-12-20T09:56:14;6.60;99.90
21672;DHT22;10997;52.242;8.168;2023-12-20T10:01:16;6.50;99.90
21672;DHT22;10997;52.242;8.168;2023-12-20T10:06:21;6.50;99.90
21672;DHT22;10997;52.242;8.168;2023-12-20T10:11:22;6.60;99.90
21672;DHT22;10997;52.242;8.168;2023-12-20T10:16:25;6.60;99.90
21672;DHT22;10997;52.242;8.168;2023-12-20T10:21:26;6.50;99.90
21672;DHT22;10997;52.242;8.168;2023-12-20T10:26:27;6.50;99.90
21672;DHT22;10997;52.242;8.168;2023-12-20T10:31:32;6.60;99.90
21672;DHT22;10997;52.242;8.168;2023-12-20T10:36:33;6.60;99.90
21672;DHT22;10997;52.242;8.168;2023-12-20T10:41:34;6.70;99.90
21672;DHT22;10997;52.242;8.168;2023-12-20T10:46:35;6.70;99.90
21672;DHT22;10997;52.242;8.168;2023-12-20T10:51:37;6.70;99.90
21672;DHT22;10997;52.242;8.168;2023-12-20T10:56:39;6.70;99.90
21672;DHT22;10997;52.242;8.168;2023-12-20T11:01:40;7.00;99.90
21672;DHT22;10997;52.242;8.168;2023-12-20T11:06:47;7.00;99.90
21672;DHT22;10997;52.242;8.168;2023-12-20T11:17:07;7.00;99.90
21672;DHT22;10997;52.242;8.168;2023-12-20T11:22:08;7.00;99.90
21672;DHT22;10997;52.242;8.168;2023-12-20T11:27:09;7.00;99.90
21672;DHT22;10997;52.242;8.168;2023-12-20T11:37:35;7.10;99.90
21672;DHT22;10997;52.242;8.168;2023-12-20T11:42:43;7.00;99.90
21672;DHT22;10997;52.242;8.168;2023-12-20T11:47:46;6.90;99.90
21672;DHT22;10997;52.242;8.168;2023-12-20T11:52:51;6.80;99.90
21672;DHT22;10997;52.242;8.168;2023-12-20T11:57:52;6.70;99.90
21672;DHT22;10997;52.242;8.168;2023-12-20T12:02:57;6.70;99.90
21672;DHT22;10997;52.242;8.168;2023-12-20T12:07:58;6.70;99.90
21672;DHT22;10997;52.242;8.168;2023-12-20T12:13:01;6.60;99.90
21672;DHT22;10997;52.242;8.168;2023-12-20T12:18:02;6.40;99.90
21672;DHT22;10997;52.242;8.168;2023-12-20T12:23:04;5.90;99.90
21672;DHT22;10997;52.242;8.168;2023-12-20T12:28:05;5.90;99.90
21672;DHT22;10997;52.242;8.168;2023-12-20T12:33:06;5.90;99.90
21672;DHT22;10997;52.242;8.168;2023-12-20T12:38:07;6.00;99.90
21672;DHT22;10997;52.242;8.168;2023-12-20T12:43:08;5.90;99.90
21672;DHT22;10997;52.242;8.168;2023-12-20T12:48:08;5.90;99.90
21672;DHT22;10997;52.242;8.168;2023-12-20T12:53:09;6.00;99.90
21672;DHT22;10997;52.242;8.168;2023-12-20T12:58:10;6.00;99.90
21672;DHT22;10997;52.242;8.168;2023-12-20T13:03:11;6.10;99.90
21672;DHT22;10997;52.242;8.168;2023-12-20T13:08:11;6.10;99.90
21672;DHT22;10997;52.242;8.168;2023-12-20T13:13:12;6.20;99.90
21672;DHT22;10997;52.242;8.168;2023-12-20T13:18:13;6.30;99.90
21672;DHT22;10997;52.242;8.168;2023-12-20T13:23:13;6.30;99.90
21672;DHT22;10997;52.242;8.168;2023-12-20T13:28:14;6.30;99.90
21672;DHT22;10997;52.242;8.168;2023-12-20T13:33:15;6.30;99.90
21672;DHT22;10997;52.242;8.168;2023-12-20T13:38:15;6.20;99.90
21672;DHT22;10997;52.242;8.168;2023-12-20T13:43:16;6.20;99.90
21672;DHT22;10997;52.242;8.168;2023-12-20T13:48:21;6.20;99.90
21672;DHT22;10997;52.242;8.168;2023-12-20T13:53:21;6.20;99.90
21672;DHT22;10997;52.242;8.168;2023-12-20T13:58:22;6.20;99.90
21672;DHT22;10997;52.242;8.168;2023-12-20T14:03:23;6.20;99.90
21672;DHT22;10997;52.242;8.168;2023-12-20T14:08:23;6.20;99.90
21672;DHT22;10997;52.242;8.168;2023-12-20T14:13:24;6.20;99.90
21672;DHT22;10997;52.242;8.168;2023-12-20T14:18:25;6.20;99.90
21672;DHT22;10997;52.242;8.168;2023-12-20T14:23:25;6.20;99.90
21672;DHT22;10997;52.242;8.168;2023-12-20T14:28:26;6.10;99.90
21672;DHT22;10997;52.242;8.168;2023-12-20T14:33:26;6.10;99.90
21672;DHT22;10997;52.242;8.168;2023-12-20T14:38:27;6.00;99.90
21672;DHT22;10997;52.242;8.168;2023-12-20T14:43:28;6.00;99.90
21672;DHT22;10997;52.242;8.168;2023-12-20T14:48:28;5.90;99.90
21672;DHT22;10997;52.242;8.168;2023-12-20T14:53:29;5.90;99.90
21672;DHT22;10997;52.242;8.168;2023-12-20T14:58:31;5.90;99.90
21672;DHT22;10997;52.242;8.168;2023-12-20T15:03:32;5.90;99.90
21672;DHT22;10997;52.242;8.168;2023-12-20T15:08:39;5.90;99.90
21672;DHT22;10997;52.242;8.168;2023-12-20T15:13:39;5.90;99.90
21672;DHT22;10997;52.242;8.168;2023-12-20T15:18:40;5.90;99.90
21672;DHT22;10997;52.242;8.168;2023-12-20T15:23:40;5.90;99.90
21672;DHT22;10997;52.242;8.168;2023-12-20T15:28:52;5.90;99.90
21672;DHT22;10997;52.242;8.168;2023-12-20T15:33:53;5.90;99.90
21672;DHT22;10997;52.242;8.168;2023-12-20T15:38:54;5.90;99.90
21672;DHT22;10997;52.242;8.168;2023-12-20T15:43:54;5.90;99.90
21672;DHT22;10997;52.242;8.168;2023-12-20T15:48:55;5.90;99.90
21672;DHT22;10997;52.242;8.168;2023-12-20T15:53:56;6.00;99.90
21672;DHT22;10997;52.242;8.168;2023-12-20T15:58:57;6.00;99.90
21672;DHT22;10997;52.242;8.168;2023-12-20T16:03:59;6.00;99.90
21672;DHT22;10997;52.242;8.168;2023-12-20T16:09:00;6.00;99.90
21672;DHT22;10997;52.242;8.168;2023-12-20T16:14:03;6.10;99.90
21672;DHT22;10997;52.242;8.168;2023-12-20T16:19:04;6.10;99.90
21672;DHT22;10997;52.242;8.168;2023-12-20T16:24:05;6.20;99.90
21672;DHT22;10997;52.242;8.168;2023-12-20T16:29:06;6.30;99.90
21672;DHT22;10997;52.242;8.168;2023-12-20T16:34:06;6.50;99.90
21672;DHT22;10997;52.242;8.168;2023-12-20T16:39:07;6.60;99.90
21672;DHT22;10997;52.242;8.168;2023-12-20T16:44:08;6.70;99.90
21672;DHT22;10997;52.242;8.168;2023-12-20T16:49:08;6.70;99.90
21672;DHT22;10997;52.242;8.168;2023-12-20T16:54:09;6.70;99.90
21672;DHT22;10997;52.242;8.168;2023-12-20T16:59:10;6.80;99.90
21672;DHT22;10997;52.242;8.168;2023-12-20T17:04:13;6.90;99.90
21672;DHT22;10997;52.242;8.168;2023-12-20T17:09:14;6.80;99.90
21672;DHT22;10997;52.242;8.168;2023-12-20T17:14:16;6.70;99.90
21672;DHT22;10997;52.242;8.168;2023-12-20T17:19:17;6.60;99.90
21672;DHT22;10997;52.242;8.168;2023-12-20T17:24:18;6.60;99.90
21672;DHT22;10997;52.242;8.168;2023-12-20T17:29:19;6.70;99.90
21672;DHT22;10997;52.242;8.168;2023-12-20T17:34:19;6.80;99.90
21672;DHT22;10997;52.242;8.168;2023-12-20T17:39:20;6.90;99.90
21672;DHT22;10997;52.242;8.168;2023-12-20T17:44:21;6.80;99.90
21672;DHT22;10997;52.242;8.168;2023-12-20T17:49:22;6.80;99.90
21672;DHT22;10997;52.242;8.168;2023-12-20T17:54:22;6.80;99.90
21672;DHT22;10997;52.242;8.168;2023-12-20T17:59:24;6.80;99.90
21672;DHT22;10997;52.242;8.168;2023-12-20T18:04:24;6.80;99.90
21672;DHT22;10997;52.242;8.168;2023-12-20T18:09:26;6.80;99.90
21672;DHT22;10997;52.242;8.168;2023-12-20T18:14:26;6.90;99.90
21672;DHT22;10997;52.242;8.168;2023-12-20T18:19:27;6.90;99.90
21672;DHT22;10997;52.242;8.168;2023-12-20T18:24:28;6.90;99.90
21672;DHT22;10997;52.242;8.168;2023-12-20T18:29:28;6.90;99.90
21672;DHT22;10997;52.242;8.168;2023-12-20T18:34:29;7.00;99.90
21672;DHT22;10997;52.242;8.168;2023-12-20T18:39:33;7.00;99.90
21672;DHT22;10997;52.242;8.168;2023-12-20T18:44:35;7.00;99.90
21672;DHT22;10997;52.242;8.168;2023-12-20T18:49:35;7.00;99.90
21672;DHT22;10997;52.242;8.168;2023-12-20T18:54:36;7.00;99.90
21672;DHT22;10997;52.242;8.168;2023-12-20T18:59:36;7.00;99.90
21672;DHT22;10997;52.242;8.168;2023-12-20T19:04:37;7.00;99.90
21672;DHT22;10997;52.242;8.168;2023-12-20T19:09:38;7.00;99.90
21672;DHT22;10997;52.242;8.168;2023-12-20T19:14:38;7.10;99.90
21672;DHT22;10997;52.242;8.168;2023-12-20T19:19:39;7.10;99.90
21672;DHT22;10997;52.242;8.168;2023-12-20T19:24:39;7.10;99.90
21672;DHT22;10997;52.242;8.168;2023-12-20T19:29:40;7.10;99.90
21672;DHT22;10997;52.242;8.168;2023-12-20T19:34:41;7.20;99.90
21672;DHT22;10997;52.242;8.168;2023-12-20T19:39:41;7.20;99.90
21672;DHT22;10997;52.242;8.168;2023-12-20T19:44:43;7.20;99.90
21672;DHT22;10997;52.242;8.168;2023-12-20T19:49:43;7.20;99.90
21672;DHT22;10997;52.242;8.168;2023-12-20T19:54:44;7.20;99.90
21672;DHT22;10997;52.242;8.168;2023-12-20T19:59:45;7.30;99.90
21672;DHT22;10997;52.242;8.168;2023-12-20T20:04:45;7.30;99.90
21672;DHT22;10997;52.242;8.168;2023-12-20T20:09:46;7.30;99.90
21672;DHT22;10997;52.242;8.168;2023-12-20T20:14:47;7.30;99.90
21672;DHT22;10997;52.242;8.168;2023-12-20T20:19:47;7.30;99.90
21672;DHT22;10997;52.242;8.168;2023-12-20T20:24:48;7.40;99.90
21672;DHT22;10997;52.242;8.168;2023-12-20T20:29:49;7.30;99.90
21672;DHT22;10997;52.242;8.168;2023-12-20T20:34:50;7.30;99.90
21672;DHT22;10997;52.242;8.168;2023-12-20T20:39:51;7.30;99.90
21672;DHT22;10997;52.242;8.168;2023-12-20T20:44:51;7.30;99.90
21672;DHT22;10997;52.242;8.168;2023-12-20T20:49:52;7.30;99.90
21672;DHT22;10997;52.242;8.168;2023-12-20T20:54:53;7.30;99.90
21672;DHT22;10997;52.242;8.168;2023-12-20T20:59:53;7.30;99.90
21672;DHT22;10997;52.242;8.168;2023-12-20T21:04:54;7.40;99.90
21672;DHT22;10997;52.242;8.168;2023-12-20T21:09:54;7.40;99.90
21672;DHT22;10997;52.242;8.168;2023-12-20T21:14:55;7.40;99.90
21672;DHT22;10997;52.242;8.168;2023-12-20T21:19:56;7.40;99.90
21672;DHT22;10997;52.242;8.168;2023-12-20T21:24:57;7.50;99.90
21672;DHT22;10997;52.242;8.168;2023-12-20T21:29:58;7.50;99.90
21672;DHT22;10997;52.242;8.168;2023-12-20T21:34:59;7.50;99.90
21672;DHT22;10997;52.242;8.168;2023-12-20T21:39:59;7.60;99.90
21672;DHT22;10997;52.242;8.168;2023-12-20T21:45:00;7.60;99.90
21672;DHT22;10997;52.242;8.168;2023-12-20T21:50:01;7.60;99.90
21672;DHT22;10997;52.242;8.168;2023-12-20T21:55:01;7.70;99.90
21672;DHT22;10997;52.242;8.168;2023-12-20T22:00:03;7.70;99.90
21672;DHT22;10997;52.242;8.168;2023-12-20T22:05:04;7.70;99.90
21672;DHT22;10997;52.242;8.168;2023-12-20T22:10:06;7.80;99.90
21672;DHT22;10997;52.242;8.168;2023-12-20T22:15:07;7.80;99.90
21672;DHT22;10997;52.242;8.168;2023-12-20T22:20:08;7.80;99.90
21672;DHT22;10997;52.242;8.168;2023-12-20T22:25:09;7.80;99.90
21672;DHT22;10997;52.242;8.168;2023-12-20T22:30:10;7.90;99.90
21672;DHT22;10997;52.242;8.168;2023-12-20T22:35:12;7.80;99.90
21672;DHT22;10997;52.242;8.168;2023-12-20T22:40:13;7.90;99.90
21672;DHT22;10997;52.242;8.168;2023-12-20T22:45:13;7.90;99.90
21672;DHT22;10997;52.242;8.168;2023-12-20T22:50:15;7.90;99.90
21672;DHT22;10997;52.242;8.168;2023-12-20T22:55:15;7.90;99.90
21672;DHT22;10997;52.242;8.168;2023-12-20T23:00:16;7.90;99.90
21672;DHT22;10997;52.242;8.168;2023-12-20T23:05:22;7.90;99.90
21672;DHT22;10997;52.242;8.168;2023-12-20T23:10:26;7.90;99.90
21672;DHT22;10997;52.242;8.168;2023-12-20T23:15:30;8.00;99.90
21672;DHT22;10997;52.242;8.168;2023-12-20T23:20:30;8.00;99.90
21672;DHT22;10997;52.242;8.168;2023-12-20T23:25:31;8.00;99.90
21672;DHT22;10997;52.242;8.168;2023-12-20T23:30:33;8.00;99.90
21672;DHT22;10997;52.242;8.168;2023-12-20T23:35:34;8.00;99.90
21672;DHT22;10997;52.242;8.168;2023-12-20T23:40:34;8.00;99.90
21672;DHT22;10997;52.242;8.168;2023-12-20T23:45:35;8.00;99.90
21672;DHT22;10997;52.242;8.168;2023-12-20T23:50:36;8.00;99.90
21672;DHT22;10997;52.242;8.168;2023-12-20T23:55:36;8.00;99.90
